Time;durP1;ratioP1;P1;durP2;ratioP2;P2;SDS_P1;SDS_P2;PMS_P1;PMS_P2;Temp;Humidity;BMP_temperature;BMP_pressure;BME280_temperature;BME280_humidity;BME280_pressure;Samples;Min_cycle;Max_cycle;Signal;HPM_P1;HPM_P2
2022/06/28 04:03:56;;;;;;;2.87;2.67;;;16.40;99.90;;;;;;5741970;22;20505;-75
2022/06/28 04:06:22;;;;;;;1.80;1.70;;;16.50;99.90;;;;;;5015488;28;20810;-73
2022/06/28 04:08:48;;;;;;;4.87;2.10;;;16.50;99.90;;;;;;5033462;28;20463;-72
2022/06/28 04:11:15;;;;;;;3.83;2.50;;;16.60;99.90;;;;;;5014727;28;20697;-74
2022/06/28 04:14:05;;;;;;;2.23;2.13;;;16.60;99.90;;;;;;5010872;28;20482;-73
2022/06/28 04:16:32;;;;;;;2.60;2.40;;;16.70;99.90;;;;;;5012570;28;20851;-73
2022/06/28 04:18:58;;;;;;;2.33;2.20;;;16.70;99.90;;;;;;5013104;28;20394;-73
2022/06/28 04:21:23;;;;;;;2.90;2.30;;;16.60;99.90;;;;;;4995380;28;20756;-74
2022/06/28 04:26:34;;;;;;;2.33;2.13;;;16.70;99.90;;;;;;5013643;28;20186;-73
2022/06/28 04:29:01;;;;;;;2.33;2.17;;;16.80;99.90;;;;;;5013494;28;20407;-73
2022/06/28 04:31:27;;;;;;;2.50;2.40;;;16.80;99.90;;;;;;5012330;28;20206;-72
2022/06/28 04:33:53;;;;;;;2.43;2.23;;;16.90;99.90;;;;;;5011580;28;20780;-72
2022/06/28 04:36:19;;;;;;;2.17;2.07;;;16.80;99.90;;;;;;5013627;28;20831;-74
2022/06/28 04:38:44;;;;;;;2.67;2.03;;;16.90;99.90;;;;;;5013726;28;20264;-73
2022/06/28 04:41:10;;;;;;;3.23;2.93;;;16.90;99.90;;;;;;4998607;28;20181;-73
2022/06/28 04:43:36;;;;;;;3.20;2.83;;;17.00;99.90;;;;;;4998840;28;20433;-73
2022/06/28 04:46:08;;;;;;;3.73;2.97;;;17.00;99.90;;;;;;5016996;28;20477;-72
2022/06/28 04:48:38;;;;;;;5.80;3.60;;;16.90;99.90;;;;;;5017018;28;20584;-71
2022/06/28 04:51:25;;;;;;;4.10;3.80;;;16.90;99.90;;;;;;5015540;28;20453;-73
2022/06/28 04:53:54;;;;;;;3.50;3.20;;;16.90;99.90;;;;;;5016717;28;20398;-73
2022/06/28 04:56:35;;;;;;;4.57;2.70;;;17.00;99.90;;;;;;4999178;28;20453;-73
2022/06/28 04:59:01;;;;;;;4.67;4.27;;;17.10;99.90;;;;;;4999266;28;20390;-72
2022/06/28 05:01:27;;;;;;;3.23;3.03;;;17.20;99.90;;;;;;5016242;28;20427;-72
2022/06/28 05:03:52;;;;;;;5.00;3.00;;;17.20;99.90;;;;;;4998234;28;20196;-72
2022/06/28 05:06:19;;;;;;;3.00;2.80;;;17.30;99.90;;;;;;5016492;28;20708;-72
2022/06/28 05:08:44;;;;;;;2.37;2.20;;;17.40;99.90;;;;;;5017253;28;20178;-72
2022/06/28 05:11:10;;;;;;;2.80;2.60;;;17.40;99.90;;;;;;4998651;28;20948;-73
2022/06/28 05:13:59;;;;;;;2.47;2.27;;;17.40;99.90;;;;;;5016514;28;20197;-75
2022/06/28 05:16:26;;;;;;;3.40;3.10;;;17.40;99.90;;;;;;4999107;28;20449;-74
2022/06/28 05:18:51;;;;;;;5.33;4.50;;;17.40;99.90;;;;;;4999071;28;20419;-74
2022/06/28 05:21:17;;;;;;;3.43;3.23;;;17.40;99.90;;;;;;4997887;28;20493;-73
2022/06/28 05:23:45;;;;;;;4.00;3.60;;;17.40;99.90;;;;;;4997960;28;20205;-74
2022/06/28 05:26:13;;;;;;;3.20;3.00;;;17.40;99.90;;;;;;4998774;28;20414;-73
2022/06/28 05:28:38;;;;;;;3.93;3.53;;;17.40;99.90;;;;;;4999097;28;20184;-74
2022/06/28 05:31:04;;;;;;;3.67;3.33;;;17.40;99.90;;;;;;4997972;28;20455;-76
2022/06/28 05:33:30;;;;;;;3.17;2.87;;;17.40;99.90;;;;;;5015836;28;20562;-77
2022/06/28 05:35:56;;;;;;;3.30;3.00;;;17.50;99.90;;;;;;5015857;28;20181;-75
2022/06/28 05:38:21;;;;;;;2.80;2.57;;;17.60;99.90;;;;;;5015958;28;20806;-77
2022/06/28 05:40:47;;;;;;;3.70;3.40;;;17.70;99.90;;;;;;5016027;28;20514;-72
2022/06/28 05:43:13;;;;;;;3.13;2.93;;;17.90;99.90;;;;;;4998016;28;20277;-74
2022/06/28 05:45:39;;;;;;;3.23;3.03;;;18.00;99.90;;;;;;4998402;28;20178;-74
2022/06/28 05:48:07;;;;;;;4.50;4.10;;;18.10;99.90;;;;;;4998344;28;20935;-75
2022/06/28 05:50:32;;;;;;;3.90;3.60;;;18.20;99.90;;;;;;5015049;28;20982;-74
2022/06/28 05:52:58;;;;;;;3.50;3.20;;;18.20;99.90;;;;;;5014664;28;20395;-75
2022/06/28 05:55:24;;;;;;;3.43;3.13;;;18.20;99.90;;;;;;4998330;28;20566;-73
2022/06/28 05:57:50;;;;;;;4.40;4.00;;;18.30;99.90;;;;;;5015511;28;20217;-75
2022/06/28 06:00:16;;;;;;;4.33;3.93;;;18.40;99.90;;;;;;4998284;28;20175;-78
2022/06/28 06:02:41;;;;;;;4.73;4.23;;;18.60;99.90;;;;;;4997954;28;20185;-78
2022/06/28 06:05:08;;;;;;;4.37;3.93;;;18.80;99.90;;;;;;4998275;28;20545;-79
2022/06/28 06:07:33;;;;;;;5.00;3.83;;;19.10;99.90;;;;;;5015564;28;20170;-77
2022/06/28 06:10:34;;;;;;;3.87;3.47;;;19.30;99.90;;;;;;5015774;28;20397;-78
2022/06/28 06:13:02;;;;;;;4.67;4.23;;;19.40;99.90;;;;;;5010654;28;20596;-77
2022/06/28 06:15:57;;;;;;;4.27;3.97;;;19.50;99.90;;;;;;5015112;28;20503;-77
2022/06/28 06:18:23;;;;;;;4.23;3.87;;;19.70;99.90;;;;;;5015203;28;20933;-79
2022/06/28 06:20:49;;;;;;;6.47;4.80;;;19.70;99.90;;;;;;5015195;28;20408;-76
2022/06/28 06:23:16;;;;;;;4.00;3.70;;;19.80;99.90;;;;;;5014805;28;20428;-77
2022/06/28 06:26:03;;;;;;;6.00;4.60;;;19.90;99.90;;;;;;5014579;28;20404;-76
2022/06/28 06:28:30;;;;;;;4.40;4.00;;;20.00;99.90;;;;;;5015163;28;20405;-71
2022/06/28 06:30:58;;;;;;;4.50;4.17;;;20.10;99.90;;;;;;5011224;28;20433;-73
2022/06/28 06:33:25;;;;;;;4.60;3.60;;;20.30;99.90;;;;;;4995624;28;20452;-75
2022/06/28 06:35:50;;;;;;;4.87;4.20;;;20.40;99.90;;;;;;5012009;28;20746;-73
2022/06/28 06:38:16;;;;;;;3.73;3.33;;;20.40;99.90;;;;;;4997258;28;20422;-71
2022/06/28 06:40:41;;;;;;;4.17;3.77;;;20.50;99.90;;;;;;5002051;28;20178;-66
2022/06/28 06:43:07;;;;;;;4.20;3.80;;;20.50;99.90;;;;;;5013945;28;20545;-67
2022/06/28 06:45:36;;;;;;;4.23;3.93;;;20.60;99.90;;;;;;5013731;28;20191;-72
2022/06/28 06:48:02;;;;;;;4.40;4.00;;;20.50;99.90;;;;;;5013803;28;20186;-70
2022/06/28 06:50:27;;;;;;;4.50;3.73;;;20.50;99.90;;;;;;5013753;28;20517;-72
2022/06/28 06:52:53;;;;;;;4.80;4.30;;;20.50;99.90;;;;;;5014362;28;20226;-70
2022/06/28 06:55:19;;;;;;;5.00;4.53;;;20.60;99.90;;;;;;5014206;28;20547;-69
2022/06/28 06:57:45;;;;;;;4.53;4.13;;;20.50;99.90;;;;;;5014120;28;20185;-69
2022/06/28 07:00:11;;;;;;;4.10;3.70;;;20.50;99.90;;;;;;5013874;28;20194;-70
2022/06/28 07:02:42;;;;;;;4.60;4.07;;;20.50;99.90;;;;;;5013783;28;20414;-71
2022/06/28 07:05:09;;;;;;;5.97;4.60;;;20.20;99.90;;;;;;5013984;28;20432;-74
2022/06/28 07:07:35;;;;;;;5.40;4.47;;;20.20;99.90;;;;;;5014181;28;20385;-71
2022/06/28 07:10:02;;;;;;;4.93;4.17;;;20.00;99.90;;;;;;5014151;28;20471;-72
2022/06/28 07:12:28;;;;;;;4.97;4.17;;;19.80;99.90;;;;;;5013829;28;20683;-70
2022/06/28 07:14:54;;;;;;;4.77;4.37;;;19.70;99.90;;;;;;5012950;28;20580;-72
2022/06/28 07:17:20;;;;;;;4.70;4.17;;;19.50;99.90;;;;;;5013959;28;20910;-72
2022/06/28 07:19:45;;;;;;;4.90;4.43;;;19.30;99.90;;;;;;5013620;28;20221;-71
2022/06/28 07:22:11;;;;;;;4.80;4.40;;;19.30;99.90;;;;;;5013769;28;20184;-70
2022/06/28 07:24:37;;;;;;;4.10;3.70;;;19.20;99.90;;;;;;5013469;28;20193;-70
2022/06/28 07:27:03;;;;;;;4.80;4.23;;;19.20;99.90;;;;;;5013641;28;20193;-70
2022/06/28 07:29:28;;;;;;;4.30;3.90;;;19.10;99.90;;;;;;5013276;28;20405;-71
2022/06/28 07:31:54;;;;;;;5.00;4.60;;;19.00;99.90;;;;;;4996231;28;20469;-71
2022/06/28 07:34:20;;;;;;;4.33;3.93;;;19.00;99.90;;;;;;4995770;28;20198;-71
2022/06/28 07:36:45;;;;;;;4.27;3.97;;;19.00;99.90;;;;;;5013610;28;20529;-71
2022/06/28 07:39:12;;;;;;;4.40;4.00;;;19.10;99.90;;;;;;5013113;28;20167;-69
2022/06/28 07:41:38;;;;;;;5.10;4.60;;;19.20;99.90;;;;;;5008335;28;20245;-69
2022/06/28 07:44:04;;;;;;;4.10;3.80;;;19.30;99.90;;;;;;4995076;28;20922;-70
2022/06/28 07:46:29;;;;;;;4.17;3.77;;;19.40;99.90;;;;;;5013798;28;20225;-70
2022/06/28 07:48:55;;;;;;;4.60;4.13;;;19.60;99.90;;;;;;5013720;28;20170;-71
2022/06/28 07:54:05;;;;;;;3.40;3.10;;;20.30;99.90;;;;;;4972272;28;20227;-71
2022/06/28 07:56:31;;;;;;;4.63;4.23;;;21.00;99.90;;;;;;4972328;28;20387;-70
2022/06/28 07:58:59;;;;;;;3.73;3.43;;;21.80;99.90;;;;;;4971664;28;20519;-71
2022/06/28 08:01:24;;;;;;;3.30;3.00;;;22.50;99.90;;;;;;4972306;28;20821;-71
2022/06/28 08:03:50;;;;;;;3.10;2.90;;;23.80;99.90;;;;;;4971800;28;20442;-71
2022/06/28 08:06:15;;;;;;;3.50;3.30;;;25.00;99.90;;;;;;4959208;28;20196;-75
2022/06/28 08:08:41;;;;;;;2.60;2.50;;;26.10;99.90;;;;;;4953390;29;20698;-77
2022/06/28 08:11:08;;;;;;;3.50;3.30;;;27.30;99.90;;;;;;4970482;28;20251;-75
2022/06/28 08:13:34;;;;;;;3.27;3.07;;;28.20;97.90;;;;;;4955685;28;20213;-75
2022/06/28 08:16:01;;;;;;;2.80;2.60;;;29.00;99.60;;;;;;4962065;28;20428;-75
2022/06/28 08:18:27;;;;;;;2.97;2.77;;;29.90;96.70;;;;;;4952861;29;20219;-77
2022/06/28 08:20:53;;;;;;;3.73;3.43;;;30.80;93.70;;;;;;4971306;28;20977;-74
2022/06/28 08:23:18;;;;;;;3.30;2.90;;;31.60;92.80;;;;;;5008815;28;20207;-74
2022/06/28 08:25:46;;;;;;;3.83;3.53;;;32.30;91.60;;;;;;5012786;28;20185;-76
2022/06/28 08:28:12;;;;;;;3.30;3.10;;;32.40;87.90;;;;;;5013262;28;20254;-76
2022/06/28 08:30:39;;;;;;;3.40;3.10;;;32.40;88.70;;;;;;5012449;28;20485;-76
2022/06/28 08:33:04;;;;;;;3.20;3.00;;;32.50;87.30;;;;;;5012719;28;20422;-75
2022/06/28 08:35:30;;;;;;;3.00;2.80;;;32.60;85.40;;;;;;5012952;28;20425;-76
2022/06/28 08:37:56;;;;;;;3.03;2.83;;;32.90;87.90;;;;;;5013098;28;20195;-76
2022/06/28 08:40:25;;;;;;;5.23;3.00;;;33.30;83.30;;;;;;5012160;28;20483;-76
2022/06/28 08:42:55;;;;;;;3.40;3.20;;;32.50;83.00;;;;;;5012535;28;20163;-76
2022/06/28 08:45:22;;;;;;;3.23;3.03;;;32.00;85.70;;;;;;4995625;28;20407;-76
2022/06/28 08:47:52;;;;;;;3.23;3.00;;;31.90;86.20;;;;;;5013028;28;20461;-75
2022/06/28 08:50:33;;;;;;;2.87;2.57;;;31.50;88.70;;;;;;5012016;28;20484;-72
2022/06/28 08:53:05;;;;;;;3.00;2.60;;;31.10;87.50;;;;;;5012696;28;20414;-76
2022/06/28 08:55:32;;;;;;;2.23;2.13;;;31.60;89.10;;;;;;5012142;28;20491;-72
2022/06/28 08:58:03;;;;;;;2.73;2.63;;;32.30;85.50;;;;;;5012809;28;20418;-76
2022/06/28 09:00:30;;;;;;;2.70;2.57;;;32.70;83.90;;;;;;5013124;28;20409;-74
2022/06/28 09:02:56;;;;;;;2.90;2.70;;;33.00;82.20;;;;;;5012468;28;20398;-72
2022/06/28 09:05:25;;;;;;;2.33;2.13;;;33.20;80.20;;;;;;5011874;28;20441;-73
2022/06/28 09:07:53;;;;;;;2.37;2.27;;;;;;;;;;5012804;28;20406;-73
2022/06/28 09:10:20;;;;;;;2.70;2.53;;;;;;;;;;5012374;28;20417;-74
2022/06/28 09:12:54;;;;;;;2.63;2.30;;;;;;;;;;5012115;28;20489;-74
2022/06/28 09:15:24;;;;;;;2.40;2.30;;;;;;;;;;4994148;28;20851;-72
2022/06/28 09:17:54;;;;;;;2.90;2.70;;;;;;;;;;4993891;28;20772;-72
2022/06/28 09:20:20;;;;;;;2.80;2.60;;;;;;;;;;5012103;28;20525;-72
2022/06/28 09:22:46;;;;;;;3.23;2.43;;;;;;;;;;5011980;28;20413;-73
2022/06/28 09:25:23;;;;;;;2.63;2.43;;;;;;;;;;5011869;28;20416;-73
2022/06/28 09:27:49;;;;;;;7.47;4.77;;;;;;;;;;5014972;28;20397;-73
2022/06/28 09:30:15;;;;;;;2.53;2.40;;;;;;;;;;5015632;28;20416;-75
2022/06/28 09:32:42;;;;;;;2.87;2.67;;;;;;;;;;5013824;28;20478;-76
2022/06/28 09:35:11;;;;;;;3.00;2.80;;;32.10;80.50;;;;;;5015778;28;20399;-74
2022/06/28 09:37:48;;;;;;;1.90;1.80;;;26.30;95.40;;;;;;5016172;28;20406;-73
2022/06/28 09:40:14;;;;;;;3.20;2.50;;;25.90;95.70;;;;;;5015524;28;20418;-75
2022/06/28 09:42:41;;;;;;;2.17;2.07;;;25.90;95.80;;;;;;5013039;28;20433;-73
2022/06/28 09:45:08;;;;;;;2.47;2.27;;;;;;;;;;5012111;28;20209;-71
2022/06/28 09:47:35;;;;;;;2.00;1.90;;;25.90;95.20;;;;;;5013192;28;20421;-71
2022/06/28 09:50:05;;;;;;;2.57;2.40;;;26.20;96.40;;;;;;5015391;28;20422;-72
2022/06/28 09:52:30;;;;;;;2.60;2.40;;;26.20;97.00;;;;;;5014655;28;20886;-73
2022/06/28 09:54:58;;;;;;;2.90;2.43;;;26.20;96.50;;;;;;5013915;28;20416;-74
2022/06/28 09:57:24;;;;;;;4.03;3.83;;;26.30;95.90;;;;;;5015127;28;20568;-72
2022/06/28 09:59:51;;;;;;;2.53;2.43;;;26.40;96.20;;;;;;5014386;28;20493;-72
2022/06/28 10:02:17;;;;;;;3.10;2.90;;;26.70;95.40;;;;;;5014508;28;20458;-72
2022/06/28 10:04:45;;;;;;;2.37;2.27;;;26.90;95.90;;;;;;5015297;28;20449;-71
2022/06/28 10:07:12;;;;;;;1.80;1.70;;;27.50;94.10;;;;;;5014540;28;20787;-70
2022/06/28 10:09:38;;;;;;;2.27;2.17;;;28.40;94.10;;;;;;5014595;28;20417;-73
2022/06/28 10:15:01;;;;;;;2.13;2.03;;;30.00;91.80;;;;;;5014346;28;20468;-73
2022/06/28 10:17:40;;;;;;;2.17;2.07;;;30.10;89.00;;;;;;5010051;28;20429;-75
2022/06/28 10:20:18;;;;;;;1.80;1.70;;;29.50;88.70;;;;;;5008691;28;20418;-74
2022/06/28 10:22:44;;;;;;;1.97;1.87;;;;;;;;;;5015340;28;20425;-73
2022/06/28 10:25:14;;;;;;;2.37;2.27;;;;;;;;;;5013126;28;20441;-73
2022/06/28 10:27:47;;;;;;;3.97;2.20;;;;;;;;;;5014794;28;20452;-74
2022/06/28 10:30:20;;;;;;;1.93;1.83;;;;;;;;;;5014930;28;20410;-72
2022/06/28 10:32:51;;;;;;;1.73;1.63;;;29.00;89.40;;;;;;4996493;28;20491;-72
2022/06/28 10:35:33;;;;;;;2.10;2.00;;;29.00;91.30;;;;;;5013848;28;20456;-68
2022/06/28 10:38:10;;;;;;;1.90;1.80;;;29.60;90.00;;;;;;5014286;28;20422;-70
2022/06/28 10:40:51;;;;;;;1.70;1.63;;;;;;;;;;4998579;28;20417;-68
2022/06/28 10:43:26;;;;;;;2.90;1.60;;;;;;;;;;5013955;28;20441;-70
2022/06/28 10:46:04;;;;;;;2.07;1.97;;;29.30;89.10;;;;;;4997536;28;20776;-70
2022/06/28 10:48:32;;;;;;;2.27;2.17;;;27.60;90.40;;;;;;4996582;28;20457;-69
2022/06/28 10:51:03;;;;;;;1.70;1.60;;;26.90;92.60;;;;;;5012254;28;20439;-70
2022/06/28 10:53:33;;;;;;;1.73;1.63;;;;;;;;;;4987885;28;20760;-72
2022/06/28 10:56:25;;;;;;;2.30;2.20;;;;;;;;;;4990165;28;20509;-72
2022/06/28 10:58:58;;;;;;;1.90;1.80;;;;;;;;;;5007472;28;20412;-72
2022/06/28 11:01:55;;;;;;;2.20;2.10;;;26.50;92.60;;;;;;5008784;28;20415;-71
2022/06/28 11:04:23;;;;;;;1.87;1.77;;;28.20;91.10;;;;;;4997728;28;20512;-72
2022/06/28 11:06:56;;;;;;;1.80;1.70;;;28.80;88.80;;;;;;5000386;28;20400;-72
2022/06/28 11:09:41;;;;;;;1.77;1.67;;;29.30;88.70;;;;;;5011910;28;20425;-72
2022/06/28 11:12:11;;;;;;;1.70;1.60;;;29.80;86.80;;;;;;4961310;28;20481;-72
2022/06/28 11:14:51;;;;;;;1.60;1.50;;;29.90;86.80;;;;;;5012063;28;20407;-70
2022/06/28 11:17:30;;;;;;;2.00;1.90;;;29.60;85.30;;;;;;5005482;28;20408;-71
2022/06/28 11:19:57;;;;;;;1.73;1.63;;;;;;;;;;4995722;28;20422;-70
2022/06/28 11:22:29;;;;;;;1.60;1.50;;;;;;;;;;4998248;28;20422;-69
2022/06/28 11:24:56;;;;;;;1.37;1.37;;;;;;;;;;5006163;28;20803;-70
2022/06/28 11:27:22;;;;;;;1.20;1.20;;;;;;;;;;5011997;28;20406;-69
2022/06/28 11:29:51;;;;;;;1.57;1.47;;;;;;;;;;5011975;28;20512;-71
2022/06/28 11:32:29;;;;;;;1.47;1.47;;;;;;;;;;4993156;28;20526;-70
2022/06/28 11:35:13;;;;;;;1.30;1.30;;;;;;;;;;5006242;28;20761;-70
2022/06/28 11:37:53;;;;;;;1.77;1.67;;;29.10;84.20;;;;;;4997030;28;20757;-70
2022/06/28 11:40:21;;;;;;;1.57;1.47;;;26.00;91.80;;;;;;4983271;28;20826;-72
2022/06/28 11:42:48;;;;;;;2.00;1.90;;;25.80;91.80;;;;;;5003171;28;20457;-70
2022/06/28 11:45:14;;;;;;;1.70;1.60;;;25.60;92.10;;;;;;5009654;28;20462;-70
2022/06/28 11:47:44;;;;;;;1.97;1.87;;;25.60;92.30;;;;;;5011488;28;20418;-71
2022/06/28 11:50:16;;;;;;;1.73;1.63;;;25.60;92.40;;;;;;5010691;28;20400;-71
2022/06/28 11:53:00;;;;;;;1.43;1.37;;;25.50;92.70;;;;;;5000203;28;20802;-71
2022/06/28 11:55:42;;;;;;;1.70;1.60;;;25.60;92.60;;;;;;5008737;28;20929;-70
2022/06/28 11:58:14;;;;;;;1.33;1.23;;;25.80;92.60;;;;;;4976649;28;20397;-70
2022/06/28 12:00:41;;;;;;;1.83;1.73;;;25.80;92.00;;;;;;4997307;28;20747;-72
2022/06/28 12:03:07;;;;;;;1.40;1.37;;;25.80;91.20;;;;;;5003097;28;20408;-70
2022/06/28 12:05:36;;;;;;;1.30;1.30;;;25.70;91.90;;;;;;5011500;28;20433;-71
2022/06/28 12:08:03;;;;;;;1.30;1.27;;;25.50;91.50;;;;;;5011349;28;20393;-71
2022/06/28 12:10:32;;;;;;;1.60;1.20;;;25.40;92.30;;;;;;4999901;28;21199;-71
2022/06/28 12:13:11;;;;;;;1.17;1.17;;;25.40;92.50;;;;;;4993234;28;20401;-73
2022/06/28 12:15:37;;;;;;;1.80;1.20;;;25.40;92.70;;;;;;5008804;28;20530;-70
2022/06/28 12:18:05;;;;;;;1.47;1.37;;;25.40;92.90;;;;;;5010327;28;20430;-70
2022/06/28 12:20:32;;;;;;;1.43;1.20;;;25.40;92.80;;;;;;5000916;28;20410;-70
2022/06/28 12:23:04;;;;;;;1.70;1.10;;;25.60;92.70;;;;;;5009228;28;20492;-72
2022/06/28 12:25:32;;;;;;;1.23;1.20;;;25.60;92.10;;;;;;4997759;28;20400;-72
2022/06/28 12:27:57;;;;;;;1.00;1.00;;;25.70;92.10;;;;;;4994945;28;20393;-72
2022/06/28 12:30:24;;;;;;;1.30;1.30;;;25.70;91.90;;;;;;4992774;28;20407;-75
2022/06/28 12:32:52;;;;;;;1.17;1.13;;;25.80;91.40;;;;;;4994730;28;20176;-72
2022/06/28 12:35:18;;;;;;;1.27;1.27;;;25.90;92.30;;;;;;5011433;28;20479;-72
2022/06/28 12:37:44;;;;;;;1.27;1.27;;;26.00;92.10;;;;;;5011034;28;20392;-73
2022/06/28 12:40:11;;;;;;;1.60;1.50;;;26.00;92.00;;;;;;5011321;28;20404;-73
2022/06/28 12:42:37;;;;;;;1.40;1.30;;;26.10;91.90;;;;;;4996357;28;20453;-73
2022/06/28 12:45:03;;;;;;;1.10;1.10;;;26.10;92.10;;;;;;4997634;28;20418;-73
2022/06/28 12:47:37;;;;;;;0.90;0.90;;;26.20;91.50;;;;;;4995263;28;20240;-74
2022/06/28 12:50:05;;;;;;;1.23;1.23;;;26.20;90.80;;;;;;4994999;28;20477;-72
2022/06/28 12:52:34;;;;;;;1.23;1.23;;;26.20;90.70;;;;;;4995819;28;20491;-74
2022/06/28 12:54:59;;;;;;;1.80;1.40;;;26.20;90.50;;;;;;5013100;28;20422;-77
2022/06/28 12:57:27;;;;;;;1.20;1.20;;;26.20;90.60;;;;;;5012627;28;20825;-71
2022/06/28 12:59:53;;;;;;;1.50;1.40;;;26.10;90.60;;;;;;5011703;28;20185;-74
2022/06/28 13:02:19;;;;;;;1.13;1.13;;;26.10;90.30;;;;;;4998114;28;20441;-75
2022/06/28 13:04:47;;;;;;;1.00;1.00;;;25.90;90.20;;;;;;5016503;28;20473;-73
2022/06/28 13:07:18;;;;;;;1.00;1.00;;;25.90;89.60;;;;;;5016687;28;20175;-75
2022/06/28 13:09:45;;;;;;;1.00;0.90;;;25.90;90.30;;;;;;4999498;28;20444;-74
2022/06/28 13:12:10;;;;;;;1.17;1.13;;;26.00;90.00;;;;;;5015943;28;20461;-75
2022/06/28 13:14:36;;;;;;;1.00;1.00;;;26.00;90.00;;;;;;5016565;28;20427;-76
2022/06/28 13:17:02;;;;;;;1.43;1.33;;;25.90;90.20;;;;;;5016937;28;20179;-75
2022/06/28 13:19:27;;;;;;;1.03;1.03;;;25.90;90.30;;;;;;5016419;28;20179;-73
2022/06/28 13:21:53;;;;;;;1.00;1.00;;;25.90;90.60;;;;;;5016532;28;20178;-75
2022/06/28 13:24:18;;;;;;;1.13;1.13;;;26.00;90.90;;;;;;5016169;28;20281;-75
2022/06/28 13:26:45;;;;;;;2.13;1.20;;;26.00;89.50;;;;;;5016295;28;20545;-79
2022/06/28 13:29:11;;;;;;;5.83;1.67;;;26.00;89.50;;;;;;5016533;28;20175;-73
2022/06/28 13:31:37;;;;;;;2.33;1.40;;;26.10;89.30;;;;;;5016286;28;20460;-74
2022/06/28 13:34:04;;;;;;;1.40;1.40;;;26.00;89.10;;;;;;5015825;28;20426;-74
2022/06/28 13:36:31;;;;;;;1.23;1.10;;;26.00;89.00;;;;;;5016262;28;20451;-76
2022/06/28 13:38:56;;;;;;;1.07;1.03;;;26.10;88.70;;;;;;5016157;28;20464;-74
2022/06/28 13:41:22;;;;;;;1.53;1.10;;;26.10;89.00;;;;;;5015711;28;20435;-75
2022/06/28 13:43:48;;;;;;;1.20;1.20;;;26.10;88.70;;;;;;4997897;28;20213;-74
2022/06/28 13:46:13;;;;;;;1.27;1.17;;;26.10;89.00;;;;;;5016023;28;20273;-74
2022/06/28 13:48:39;;;;;;;2.00;1.33;;;26.10;89.40;;;;;;5015640;28;20633;-75
2022/06/28 13:51:05;;;;;;;0.90;0.90;;;26.10;89.50;;;;;;5015632;28;20207;-71
2022/06/28 13:53:33;;;;;;;1.47;1.20;;;26.10;89.70;;;;;;5015025;28;20286;-76
2022/06/28 13:56:02;;;;;;;2.20;0.80;;;26.00;88.30;;;;;;5014941;28;20432;-71
2022/06/28 13:58:29;;;;;;;0.90;0.90;;;25.90;89.80;;;;;;5014576;28;20440;-73
2022/06/28 14:00:57;;;;;;;1.17;1.17;;;26.00;88.50;;;;;;5015599;28;20436;-69
2022/06/28 14:03:24;;;;;;;1.23;1.20;;;26.00;88.60;;;;;;5015163;28;20423;-72
2022/06/28 14:05:50;;;;;;;1.57;1.47;;;26.00;88.60;;;;;;5015276;28;20492;-72
2022/06/28 14:08:16;;;;;;;1.13;1.13;;;26.00;89.30;;;;;;5015556;28;20384;-71
2022/06/28 14:10:41;;;;;;;1.10;1.10;;;26.00;88.70;;;;;;5015012;28;20262;-71
2022/06/28 14:13:08;;;;;;;0.90;0.90;;;25.90;89.80;;;;;;5015694;28;20577;-71
2022/06/28 14:15:34;;;;;;;1.40;1.30;;;25.90;90.30;;;;;;5015936;28;20254;-71
2022/06/28 14:18:00;;;;;;;1.17;1.17;;;25.90;89.70;;;;;;5015206;28;20432;-71
2022/06/28 14:20:26;;;;;;;1.47;1.40;;;26.00;89.40;;;;;;5014905;28;20167;-72
2022/06/28 14:22:52;;;;;;;1.23;1.23;;;26.00;89.30;;;;;;5014598;28;20938;-71
2022/06/28 14:25:19;;;;;;;0.90;0.90;;;26.00;88.70;;;;;;5015115;28;20575;-70
2022/06/28 14:27:46;;;;;;;1.70;1.60;;;26.10;90.30;;;;;;5015448;28;20194;-70
2022/06/28 14:30:12;;;;;;;1.07;1.07;;;26.30;90.20;;;;;;5015404;28;20469;-69
2022/06/28 14:32:38;;;;;;;1.23;1.23;;;26.40;89.30;;;;;;5014428;28;20544;-70
2022/06/28 14:35:05;;;;;;;1.47;1.37;;;26.40;87.80;;;;;;5015108;28;20430;-71
2022/06/28 14:37:31;;;;;;;1.37;1.27;;;26.40;88.00;;;;;;5014264;28;20434;-71
2022/06/28 14:39:57;;;;;;;1.40;1.40;;;26.40;88.10;;;;;;4996912;28;20521;-71
2022/06/28 14:42:23;;;;;;;1.57;1.47;;;26.60;87.10;;;;;;5014484;28;20187;-72
2022/06/28 14:44:49;;;;;;;1.70;1.60;;;26.70;88.80;;;;;;5014800;28;20438;-71
2022/06/28 14:47:15;;;;;;;1.10;1.07;;;26.80;87.60;;;;;;5014939;28;20184;-71
2022/06/28 14:49:41;;;;;;;1.87;1.70;;;26.80;87.80;;;;;;4996128;28;20831;-71
2022/06/28 14:52:07;;;;;;;1.30;1.30;;;26.80;87.00;;;;;;5014151;28;20212;-70
2022/06/28 14:54:32;;;;;;;1.20;1.20;;;26.80;86.70;;;;;;4984806;28;20235;-70
2022/06/28 14:56:58;;;;;;;1.30;1.30;;;26.80;87.80;;;;;;5014273;28;20269;-72
2022/06/28 14:59:25;;;;;;;1.30;1.20;;;26.80;87.90;;;;;;5014690;28;20178;-71
2022/06/28 15:01:51;;;;;;;1.20;1.20;;;26.80;87.50;;;;;;5014266;28;20424;-71
2022/06/28 15:04:19;;;;;;;1.37;1.37;;;26.70;88.30;;;;;;5014052;28;20516;-70
2022/06/28 15:06:45;;;;;;;1.57;1.40;;;26.70;87.80;;;;;;5014459;28;20419;-72
2022/06/28 15:09:10;;;;;;;1.30;1.20;;;26.70;88.70;;;;;;5014104;28;20445;-70
2022/06/28 15:11:36;;;;;;;1.20;1.20;;;26.80;86.80;;;;;;5013376;28;20432;-70
2022/06/28 15:14:02;;;;;;;1.50;1.40;;;26.80;87.40;;;;;;5013808;28;20286;-71
2022/06/28 15:16:28;;;;;;;1.40;1.30;;;26.80;87.20;;;;;;5015023;28;20177;-72
2022/06/28 15:18:54;;;;;;;1.90;1.70;;;26.80;87.50;;;;;;5014806;28;20572;-71
2022/06/28 15:32:17;;;;;;;2.00;1.40;;;26.60;88.30;;;;;;5013840;28;20510;-71
2022/06/28 15:34:42;;;;;;;1.47;1.47;;;26.60;87.80;;;;;;4996207;28;20405;-71
2022/06/28 15:37:08;;;;;;;1.47;1.37;;;26.50;88.10;;;;;;5014128;28;20272;-71
2022/06/28 15:39:33;;;;;;;1.60;1.50;;;26.40;88.50;;;;;;5013813;28;20541;-70
2022/06/28 15:42:01;;;;;;;1.23;1.23;;;26.40;89.00;;;;;;5014014;28;20233;-70
2022/06/28 15:44:27;;;;;;;1.60;1.50;;;26.30;89.10;;;;;;5013608;28;20206;-72
2022/06/28 15:46:52;;;;;;;2.53;1.50;;;26.30;90.00;;;;;;5013913;28;20385;-72
2022/06/28 15:49:18;;;;;;;2.00;1.90;;;26.30;89.00;;;;;;5013852;28;20505;-71
2022/06/28 15:51:44;;;;;;;1.70;1.60;;;26.30;89.30;;;;;;4996175;28;20294;-72
2022/06/28 15:54:10;;;;;;;1.80;1.70;;;26.20;89.70;;;;;;5013128;28;20561;-70
2022/06/28 15:56:35;;;;;;;1.77;1.67;;;26.20;90.00;;;;;;5013905;28;20179;-70
2022/06/28 15:59:01;;;;;;;2.17;1.90;;;26.10;90.00;;;;;;5013878;28;20179;-71
2022/06/28 16:01:27;;;;;;;1.60;1.50;;;26.00;90.10;;;;;;5014097;28;20179;-72
2022/06/28 16:03:53;;;;;;;1.40;1.37;;;25.80;90.60;;;;;;5013083;28;20413;-70
2022/06/28 16:06:19;;;;;;;3.83;1.83;;;25.70;90.90;;;;;;5013562;28;20225;-70
2022/06/28 16:08:44;;;;;;;1.63;1.53;;;25.60;91.40;;;;;;5013747;28;20221;-70
2022/06/28 16:11:10;;;;;;;1.47;1.40;;;25.50;91.40;;;;;;5013247;28;20703;-71
2022/06/28 16:13:36;;;;;;;1.83;1.73;;;25.40;91.50;;;;;;5013184;28;20221;-71
2022/06/28 16:16:01;;;;;;;1.70;1.60;;;25.30;91.70;;;;;;5013717;28;20171;-71
2022/06/28 16:18:27;;;;;;;1.63;1.53;;;25.30;92.10;;;;;;5013730;28;20621;-72
2022/06/28 16:20:53;;;;;;;1.57;1.47;;;25.20;92.10;;;;;;5012299;28;20254;-68
2022/06/28 16:23:18;;;;;;;1.90;1.80;;;25.20;92.40;;;;;;5012782;28;20298;-71
2022/06/28 16:25:44;;;;;;;1.83;1.73;;;25.20;92.50;;;;;;5013403;28;20268;-73
2022/06/28 16:28:11;;;;;;;1.90;1.80;;;25.20;92.30;;;;;;5014077;28;20170;-75
2022/06/28 16:30:37;;;;;;;1.93;1.83;;;25.20;92.60;;;;;;5013322;28;20651;-71
2022/06/28 16:33:04;;;;;;;1.80;1.70;;;25.20;92.90;;;;;;4995781;28;20516;-69
2022/06/28 16:35:31;;;;;;;1.90;1.80;;;25.20;92.50;;;;;;5013640;28;20456;-71
2022/06/28 16:37:58;;;;;;;2.03;1.77;;;25.10;92.40;;;;;;5017424;28;20384;-70
2022/06/28 16:40:25;;;;;;;1.80;1.70;;;25.20;92.60;;;;;;5017356;28;20377;-73
2022/06/28 16:42:52;;;;;;;1.73;1.63;;;25.20;92.50;;;;;;5016754;28;20413;-69
2022/06/28 16:45:18;;;;;;;2.00;1.90;;;25.20;92.80;;;;;;4999334;28;20963;-70
2022/06/28 16:47:45;;;;;;;1.80;1.70;;;25.30;92.90;;;;;;5017031;28;20516;-69
2022/06/28 16:50:17;;;;;;;1.27;1.17;;;25.20;93.30;;;;;;4999239;28;20966;-68
2022/06/28 16:52:44;;;;;;;1.73;1.63;;;25.30;93.20;;;;;;5016545;28;20439;-68
2022/06/28 16:55:10;;;;;;;1.70;1.60;;;25.30;93.20;;;;;;5016830;28;20445;-70
2022/06/28 16:57:36;;;;;;;1.97;1.87;;;25.30;92.40;;;;;;5016982;28;20728;-71
2022/06/28 17:00:03;;;;;;;2.13;1.80;;;25.20;92.30;;;;;;5016747;28;20413;-69
2022/06/28 17:02:29;;;;;;;2.20;2.10;;;25.20;93.00;;;;;;5016362;28;20413;-65
2022/06/28 17:04:55;;;;;;;2.30;2.10;;;25.20;93.10;;;;;;5016339;28;20439;-69
2022/06/28 17:07:20;;;;;;;2.20;2.00;;;25.20;93.20;;;;;;5016986;28;20182;-66
2022/06/28 17:09:47;;;;;;;2.30;2.13;;;25.20;93.20;;;;;;5016856;28;20652;-67
2022/06/28 17:12:13;;;;;;;2.00;1.90;;;25.20;93.00;;;;;;5015973;28;20373;-67
2022/06/28 17:14:39;;;;;;;1.90;1.80;;;25.20;92.60;;;;;;5016682;28;20856;-68
2022/06/28 17:17:05;;;;;;;2.10;2.00;;;25.10;92.80;;;;;;4998986;28;20414;-69
2022/06/28 17:19:30;;;;;;;1.80;1.70;;;25.20;92.80;;;;;;5016677;28;20262;-70
2022/06/28 17:21:57;;;;;;;2.10;2.00;;;25.20;92.90;;;;;;5015985;28;20882;-71